sensor_id;sensor_type;location;lat;lon;timestamp;temperature;humidity
9223;DHT22;7557;51.698;3.942;2022-09-03T00:00:27;21.70;85.40
9223;DHT22;7557;51.698;3.942;2022-09-03T00:03:02;21.70;85.40
9223;DHT22;7557;51.698;3.942;2022-09-03T00:05:36;21.70;85.40
9223;DHT22;7557;51.698;3.942;2022-09-03T00:08:09;21.70;85.40
9223;DHT22;7557;51.698;3.942;2022-09-03T00:10:45;21.70;85.40
9223;DHT22;7557;51.698;3.942;2022-09-03T00:13:19;21.70;85.50
9223;DHT22;7557;51.698;3.942;2022-09-03T00:15:48;21.70;85.40
9223;DHT22;7557;51.698;3.942;2022-09-03T00:18:20;21.60;85.20
9223;DHT22;7557;51.698;3.942;2022-09-03T00:20:51;21.60;85.20
9223;DHT22;7557;51.698;3.942;2022-09-03T00:23:22;21.50;85.40
9223;DHT22;7557;51.698;3.942;2022-09-03T00:25:55;21.50;85.60
9223;DHT22;7557;51.698;3.942;2022-09-03T00:28:27;21.40;85.70
9223;DHT22;7557;51.698;3.942;2022-09-03T00:31:06;21.40;85.80
9223;DHT22;7557;51.698;3.942;2022-09-03T00:33:39;21.30;85.90
9223;DHT22;7557;51.698;3.942;2022-09-03T00:36:13;21.30;86.00
9223;DHT22;7557;51.698;3.942;2022-09-03T00:38:42;21.30;86.20
9223;DHT22;7557;51.698;3.942;2022-09-03T00:41:18;21.20;86.30
9223;DHT22;7557;51.698;3.942;2022-09-03T00:44:01;21.10;86.30
9223;DHT22;7557;51.698;3.942;2022-09-03T00:46:41;21.10;86.60
9223;DHT22;7557;51.698;3.942;2022-09-03T00:49:23;21.00;86.70
9223;DHT22;7557;51.698;3.942;2022-09-03T00:52:02;21.00;86.80
9223;DHT22;7557;51.698;3.942;2022-09-03T00:54:36;20.90;86.90
9223;DHT22;7557;51.698;3.942;2022-09-03T00:57:21;20.90;87.20
9223;DHT22;7557;51.698;3.942;2022-09-03T01:00:00;20.80;87.30
9223;DHT22;7557;51.698;3.942;2022-09-03T01:02:35;20.80;87.60
9223;DHT22;7557;51.698;3.942;2022-09-03T01:05:13;20.70;87.50
9223;DHT22;7557;51.698;3.942;2022-09-03T01:07:48;20.70;87.60
9223;DHT22;7557;51.698;3.942;2022-09-03T01:10:25;20.70;87.80
9223;DHT22;7557;51.698;3.942;2022-09-03T01:13:00;20.60;87.80
9223;DHT22;7557;51.698;3.942;2022-09-03T01:15:39;20.70;87.90
9223;DHT22;7557;51.698;3.942;2022-09-03T01:18:17;20.60;87.90
9223;DHT22;7557;51.698;3.942;2022-09-03T01:21:03;20.60;88.10
9223;DHT22;7557;51.698;3.942;2022-09-03T01:23:53;20.60;88.00
9223;DHT22;7557;51.698;3.942;2022-09-03T01:26:37;20.50;88.10
9223;DHT22;7557;51.698;3.942;2022-09-03T01:29:19;20.50;88.20
9223;DHT22;7557;51.698;3.942;2022-09-03T01:31:59;20.40;88.40
9223;DHT22;7557;51.698;3.942;2022-09-03T01:34:42;20.30;88.60
9223;DHT22;7557;51.698;3.942;2022-09-03T01:37:17;20.30;88.70
9223;DHT22;7557;51.698;3.942;2022-09-03T01:39:59;20.20;88.80
9223;DHT22;7557;51.698;3.942;2022-09-03T01:42:35;20.20;88.90
9223;DHT22;7557;51.698;3.942;2022-09-03T01:48:11;20.10;89.10
9223;DHT22;7557;51.698;3.942;2022-09-03T01:50:48;20.10;89.40
9223;DHT22;7557;51.698;3.942;2022-09-03T01:53:31;20.00;89.50
9223;DHT22;7557;51.698;3.942;2022-09-03T01:56:14;20.00;89.60
9223;DHT22;7557;51.698;3.942;2022-09-03T01:58:50;19.90;89.80
9223;DHT22;7557;51.698;3.942;2022-09-03T02:01:27;19.80;90.00
9223;DHT22;7557;51.698;3.942;2022-09-03T02:03:56;19.80;90.10
9223;DHT22;7557;51.698;3.942;2022-09-03T02:06:25;19.70;90.20
9223;DHT22;7557;51.698;3.942;2022-09-03T02:08:52;19.70;90.30
9223;DHT22;7557;51.698;3.942;2022-09-03T02:11:20;19.60;90.40
9223;DHT22;7557;51.698;3.942;2022-09-03T02:13:49;19.50;90.40
9223;DHT22;7557;51.698;3.942;2022-09-03T02:16:22;19.50;90.50
9223;DHT22;7557;51.698;3.942;2022-09-03T02:18:54;19.50;90.50
9223;DHT22;7557;51.698;3.942;2022-09-03T02:21:24;19.40;90.60
9223;DHT22;7557;51.698;3.942;2022-09-03T02:23:53;19.40;91.00
9223;DHT22;7557;51.698;3.942;2022-09-03T02:26:22;19.40;90.80
9223;DHT22;7557;51.698;3.942;2022-09-03T02:28:52;19.40;90.70
9223;DHT22;7557;51.698;3.942;2022-09-03T02:31:21;19.50;90.70
9223;DHT22;7557;51.698;3.942;2022-09-03T02:33:49;19.50;90.70
9223;DHT22;7557;51.698;3.942;2022-09-03T02:36:20;19.50;90.70
9223;DHT22;7557;51.698;3.942;2022-09-03T02:38:50;19.50;90.70
9223;DHT22;7557;51.698;3.942;2022-09-03T02:41:18;19.50;90.70
9223;DHT22;7557;51.698;3.942;2022-09-03T02:43:48;19.40;90.70
9223;DHT22;7557;51.698;3.942;2022-09-03T02:46:23;19.40;90.80
9223;DHT22;7557;51.698;3.942;2022-09-03T02:48:52;19.30;90.80
9223;DHT22;7557;51.698;3.942;2022-09-03T02:51:20;19.20;91.00
9223;DHT22;7557;51.698;3.942;2022-09-03T02:53:48;19.20;91.00
9223;DHT22;7557;51.698;3.942;2022-09-03T02:56:15;19.20;91.30
9223;DHT22;7557;51.698;3.942;2022-09-03T02:58:43;19.20;91.00
9223;DHT22;7557;51.698;3.942;2022-09-03T03:01:10;19.10;91.00
9223;DHT22;7557;51.698;3.942;2022-09-03T03:03:40;19.10;91.00
9223;DHT22;7557;51.698;3.942;2022-09-03T03:06:07;19.00;91.10
9223;DHT22;7557;51.698;3.942;2022-09-03T03:08:35;19.00;91.10
9223;DHT22;7557;51.698;3.942;2022-09-03T03:11:03;19.00;91.20
9223;DHT22;7557;51.698;3.942;2022-09-03T03:13:31;18.90;91.30
9223;DHT22;7557;51.698;3.942;2022-09-03T03:16:00;18.90;91.30
9223;DHT22;7557;51.698;3.942;2022-09-03T03:18:28;18.80;91.30
9223;DHT22;7557;51.698;3.942;2022-09-03T03:20:57;18.80;91.40
9223;DHT22;7557;51.698;3.942;2022-09-03T03:23:31;18.80;91.40
9223;DHT22;7557;51.698;3.942;2022-09-03T03:26:00;18.80;91.50
9223;DHT22;7557;51.698;3.942;2022-09-03T03:28:28;18.80;91.50
9223;DHT22;7557;51.698;3.942;2022-09-03T03:31:03;18.70;91.50
9223;DHT22;7557;51.698;3.942;2022-09-03T03:33:31;18.60;91.60
9223;DHT22;7557;51.698;3.942;2022-09-03T03:36:04;18.60;91.70
9223;DHT22;7557;51.698;3.942;2022-09-03T03:38:33;18.60;92.10
9223;DHT22;7557;51.698;3.942;2022-09-03T03:41:06;18.50;91.80
9223;DHT22;7557;51.698;3.942;2022-09-03T03:43:34;18.50;91.80
9223;DHT22;7557;51.698;3.942;2022-09-03T03:46:02;18.50;91.80
9223;DHT22;7557;51.698;3.942;2022-09-03T03:48:30;18.40;91.90
9223;DHT22;7557;51.698;3.942;2022-09-03T03:51:00;18.40;92.00
9223;DHT22;7557;51.698;3.942;2022-09-03T03:53:30;18.40;92.00
9223;DHT22;7557;51.698;3.942;2022-09-03T03:55:59;18.50;92.10
9223;DHT22;7557;51.698;3.942;2022-09-03T03:58:28;18.40;92.10
9223;DHT22;7557;51.698;3.942;2022-09-03T04:01:03;18.30;92.20
9223;DHT22;7557;51.698;3.942;2022-09-03T04:03:32;18.30;92.30
9223;DHT22;7557;51.698;3.942;2022-09-03T04:06:00;18.20;92.30
9223;DHT22;7557;51.698;3.942;2022-09-03T04:08:33;18.30;92.40
9223;DHT22;7557;51.698;3.942;2022-09-03T04:11:02;18.30;92.40
9223;DHT22;7557;51.698;3.942;2022-09-03T04:13:30;18.30;92.30
9223;DHT22;7557;51.698;3.942;2022-09-03T04:16:02;18.30;92.30
9223;DHT22;7557;51.698;3.942;2022-09-03T04:18:32;18.30;92.40
9223;DHT22;7557;51.698;3.942;2022-09-03T04:21:01;18.20;92.50
9223;DHT22;7557;51.698;3.942;2022-09-03T04:23:31;18.10;92.60
9223;DHT22;7557;51.698;3.942;2022-09-03T04:25:59;18.00;92.70
9223;DHT22;7557;51.698;3.942;2022-09-03T04:28:27;17.90;92.80
9223;DHT22;7557;51.698;3.942;2022-09-03T04:30:54;17.90;93.00
9223;DHT22;7557;51.698;3.942;2022-09-03T04:33:26;17.80;93.00
9223;DHT22;7557;51.698;3.942;2022-09-03T04:36:02;17.80;93.10
9223;DHT22;7557;51.698;3.942;2022-09-03T04:38:32;17.80;93.10
9223;DHT22;7557;51.698;3.942;2022-09-03T04:40:59;17.80;93.20
9223;DHT22;7557;51.698;3.942;2022-09-03T04:43:27;17.70;93.20
9223;DHT22;7557;51.698;3.942;2022-09-03T04:45:56;17.70;93.30
9223;DHT22;7557;51.698;3.942;2022-09-03T04:48:24;17.60;93.40
9223;DHT22;7557;51.698;3.942;2022-09-03T04:50:52;17.50;93.60
9223;DHT22;7557;51.698;3.942;2022-09-03T04:53:21;17.40;93.70
9223;DHT22;7557;51.698;3.942;2022-09-03T04:55:50;17.40;93.80
9223;DHT22;7557;51.698;3.942;2022-09-03T04:58:17;17.40;93.80
9223;DHT22;7557;51.698;3.942;2022-09-03T05:00:45;17.30;93.80
9223;DHT22;7557;51.698;3.942;2022-09-03T05:03:12;17.40;93.80
9223;DHT22;7557;51.698;3.942;2022-09-03T05:05:40;17.30;93.90
9223;DHT22;7557;51.698;3.942;2022-09-03T05:08:07;17.10;94.10
9223;DHT22;7557;51.698;3.942;2022-09-03T05:10:36;17.10;94.30
9223;DHT22;7557;51.698;3.942;2022-09-03T05:13:05;17.10;94.30
9223;DHT22;7557;51.698;3.942;2022-09-03T05:15:32;17.10;94.30
9223;DHT22;7557;51.698;3.942;2022-09-03T05:18:01;17.20;94.30
9223;DHT22;7557;51.698;3.942;2022-09-03T05:20:29;17.20;94.20
9223;DHT22;7557;51.698;3.942;2022-09-03T05:23:00;17.30;94.10
9223;DHT22;7557;51.698;3.942;2022-09-03T05:25:28;17.30;94.10
9223;DHT22;7557;51.698;3.942;2022-09-03T05:27:57;17.10;94.30
9223;DHT22;7557;51.698;3.942;2022-09-03T05:30:26;17.10;94.50
9223;DHT22;7557;51.698;3.942;2022-09-03T05:32:53;17.20;94.50
9223;DHT22;7557;51.698;3.942;2022-09-03T05:35:21;17.20;94.40
9223;DHT22;7557;51.698;3.942;2022-09-03T05:37:48;17.30;94.40
9223;DHT22;7557;51.698;3.942;2022-09-03T05:40:16;17.40;94.30
9223;DHT22;7557;51.698;3.942;2022-09-03T05:42:43;17.50;94.30
9223;DHT22;7557;51.698;3.942;2022-09-03T05:45:11;17.50;94.30
9223;DHT22;7557;51.698;3.942;2022-09-03T05:47:40;17.50;94.30
9223;DHT22;7557;51.698;3.942;2022-09-03T05:50:08;17.40;94.70
9223;DHT22;7557;51.698;3.942;2022-09-03T05:52:36;17.50;94.50
9223;DHT22;7557;51.698;3.942;2022-09-03T05:55:04;17.60;94.40
9223;DHT22;7557;51.698;3.942;2022-09-03T05:57:32;17.60;94.20
9223;DHT22;7557;51.698;3.942;2022-09-03T06:00:00;17.60;94.40
9223;DHT22;7557;51.698;3.942;2022-09-03T06:02:28;17.50;94.50
9223;DHT22;7557;51.698;3.942;2022-09-03T06:04:57;17.60;94.60
9223;DHT22;7557;51.698;3.942;2022-09-03T06:07:24;17.70;94.60
9223;DHT22;7557;51.698;3.942;2022-09-03T06:09:52;17.80;94.60
9223;DHT22;7557;51.698;3.942;2022-09-03T06:12:20;17.90;94.50
9223;DHT22;7557;51.698;3.942;2022-09-03T06:14:47;18.00;94.40
9223;DHT22;7557;51.698;3.942;2022-09-03T06:17:15;18.10;94.60
9223;DHT22;7557;51.698;3.942;2022-09-03T06:19:43;18.30;94.30
9223;DHT22;7557;51.698;3.942;2022-09-03T06:22:12;18.40;94.00
9223;DHT22;7557;51.698;3.942;2022-09-03T06:24:39;18.40;93.90
9223;DHT22;7557;51.698;3.942;2022-09-03T06:27:07;18.30;93.90
9223;DHT22;7557;51.698;3.942;2022-09-03T06:29:34;18.30;93.90
9223;DHT22;7557;51.698;3.942;2022-09-03T06:32:04;18.30;93.90
9223;DHT22;7557;51.698;3.942;2022-09-03T06:34:32;18.30;93.90
9223;DHT22;7557;51.698;3.942;2022-09-03T06:36:59;18.30;94.10
9223;DHT22;7557;51.698;3.942;2022-09-03T06:39:28;18.40;94.10
9223;DHT22;7557;51.698;3.942;2022-09-03T06:41:56;18.50;93.90
9223;DHT22;7557;51.698;3.942;2022-09-03T06:44:23;18.60;93.80
9223;DHT22;7557;51.698;3.942;2022-09-03T06:46:51;18.70;93.80
9223;DHT22;7557;51.698;3.942;2022-09-03T06:49:18;18.80;93.70
9223;DHT22;7557;51.698;3.942;2022-09-03T06:51:46;19.00;93.60
9223;DHT22;7557;51.698;3.942;2022-09-03T06:54:13;19.00;93.50
9223;DHT22;7557;51.698;3.942;2022-09-03T06:56:43;19.10;93.40
9223;DHT22;7557;51.698;3.942;2022-09-03T06:59:11;19.10;93.40
9223;DHT22;7557;51.698;3.942;2022-09-03T07:01:40;19.10;93.40
9223;DHT22;7557;51.698;3.942;2022-09-03T07:04:08;19.10;93.50
9223;DHT22;7557;51.698;3.942;2022-09-03T07:06:39;19.10;93.50
9223;DHT22;7557;51.698;3.942;2022-09-03T07:09:08;19.20;93.50
9223;DHT22;7557;51.698;3.942;2022-09-03T07:11:36;19.20;93.50
9223;DHT22;7557;51.698;3.942;2022-09-03T07:14:13;19.20;93.50
9223;DHT22;7557;51.698;3.942;2022-09-03T07:16:41;19.20;93.40
9223;DHT22;7557;51.698;3.942;2022-09-03T07:19:08;19.30;93.40
9223;DHT22;7557;51.698;3.942;2022-09-03T07:21:39;19.30;93.40
9223;DHT22;7557;51.698;3.942;2022-09-03T07:24:08;19.40;93.50
9223;DHT22;7557;51.698;3.942;2022-09-03T07:26:37;19.50;93.50
9223;DHT22;7557;51.698;3.942;2022-09-03T07:29:06;19.60;93.80
9223;DHT22;7557;51.698;3.942;2022-09-03T07:31:37;19.70;93.40
9223;DHT22;7557;51.698;3.942;2022-09-03T07:34:07;19.80;93.30
9223;DHT22;7557;51.698;3.942;2022-09-03T07:36:36;19.80;93.30
9223;DHT22;7557;51.698;3.942;2022-09-03T07:39:06;19.80;93.30
9223;DHT22;7557;51.698;3.942;2022-09-03T07:41:33;19.80;93.30
9223;DHT22;7557;51.698;3.942;2022-09-03T07:44:01;19.80;93.40
9223;DHT22;7557;51.698;3.942;2022-09-03T07:46:32;19.90;93.50
9223;DHT22;7557;51.698;3.942;2022-09-03T07:49:01;19.90;93.40
9223;DHT22;7557;51.698;3.942;2022-09-03T07:51:31;19.90;93.40
9223;DHT22;7557;51.698;3.942;2022-09-03T07:54:01;19.90;93.60
9223;DHT22;7557;51.698;3.942;2022-09-03T07:56:29;20.10;93.60
9223;DHT22;7557;51.698;3.942;2022-09-03T07:58:57;20.10;93.50
9223;DHT22;7557;51.698;3.942;2022-09-03T08:01:27;20.20;93.50
9223;DHT22;7557;51.698;3.942;2022-09-03T08:03:56;20.30;93.50
9223;DHT22;7557;51.698;3.942;2022-09-03T08:06:26;20.40;93.50
9223;DHT22;7557;51.698;3.942;2022-09-03T08:08:55;20.50;93.50
9223;DHT22;7557;51.698;3.942;2022-09-03T08:11:24;20.50;93.50
9223;DHT22;7557;51.698;3.942;2022-09-03T08:13:54;20.60;93.60
9223;DHT22;7557;51.698;3.942;2022-09-03T08:16:27;20.70;93.50
9223;DHT22;7557;51.698;3.942;2022-09-03T08:18:55;20.70;93.50
9223;DHT22;7557;51.698;3.942;2022-09-03T08:21:24;20.90;93.50
9223;DHT22;7557;51.698;3.942;2022-09-03T08:23:54;21.00;93.60
9223;DHT22;7557;51.698;3.942;2022-09-03T08:26:28;21.20;93.50
9223;DHT22;7557;51.698;3.942;2022-09-03T08:28:56;21.40;93.40
9223;DHT22;7557;51.698;3.942;2022-09-03T08:31:24;21.50;93.30
9223;DHT22;7557;51.698;3.942;2022-09-03T08:33:54;21.60;93.30
9223;DHT22;7557;51.698;3.942;2022-09-03T08:36:23;21.80;93.40
9223;DHT22;7557;51.698;3.942;2022-09-03T08:38:53;22.10;93.10
9223;DHT22;7557;51.698;3.942;2022-09-03T08:41:27;22.30;92.80
9223;DHT22;7557;51.698;3.942;2022-09-03T08:44:21;22.40;92.70
9223;DHT22;7557;51.698;3.942;2022-09-03T08:46:52;22.40;92.50
9223;DHT22;7557;51.698;3.942;2022-09-03T08:49:25;22.40;92.70
9223;DHT22;7557;51.698;3.942;2022-09-03T08:51:55;22.50;92.60
9223;DHT22;7557;51.698;3.942;2022-09-03T08:54:29;22.60;92.60
9223;DHT22;7557;51.698;3.942;2022-09-03T08:57:00;22.80;92.70
9223;DHT22;7557;51.698;3.942;2022-09-03T08:59:29;23.00;92.50
9223;DHT22;7557;51.698;3.942;2022-09-03T09:02:02;23.00;92.70
9223;DHT22;7557;51.698;3.942;2022-09-03T09:04:43;23.20;92.90
9223;DHT22;7557;51.698;3.942;2022-09-03T09:07:16;23.30;92.90
9223;DHT22;7557;51.698;3.942;2022-09-03T09:09:54;23.60;92.50
9223;DHT22;7557;51.698;3.942;2022-09-03T09:12:34;23.70;92.30
9223;DHT22;7557;51.698;3.942;2022-09-03T09:15:10;23.80;92.00
9223;DHT22;7557;51.698;3.942;2022-09-03T09:17:53;24.00;92.00
9223;DHT22;7557;51.698;3.942;2022-09-03T09:20:31;24.20;91.70
9223;DHT22;7557;51.698;3.942;2022-09-03T09:23:03;24.20;91.50
9223;DHT22;7557;51.698;3.942;2022-09-03T09:25:33;24.20;91.60
9223;DHT22;7557;51.698;3.942;2022-09-03T09:28:15;24.10;91.70
9223;DHT22;7557;51.698;3.942;2022-09-03T09:30:44;24.00;91.80
9223;DHT22;7557;51.698;3.942;2022-09-03T09:33:13;24.00;91.80
9223;DHT22;7557;51.698;3.942;2022-09-03T09:35:40;24.00;92.00
9223;DHT22;7557;51.698;3.942;2022-09-03T09:38:09;24.00;92.00
9223;DHT22;7557;51.698;3.942;2022-09-03T09:40:40;24.00;92.00
9223;DHT22;7557;51.698;3.942;2022-09-03T09:43:10;24.00;92.00
9223;DHT22;7557;51.698;3.942;2022-09-03T09:45:39;23.90;92.00
9223;DHT22;7557;51.698;3.942;2022-09-03T09:48:13;23.90;92.10
9223;DHT22;7557;51.698;3.942;2022-09-03T09:50:42;24.00;92.00
9223;DHT22;7557;51.698;3.942;2022-09-03T09:53:11;24.20;91.60
9223;DHT22;7557;51.698;3.942;2022-09-03T09:55:52;24.20;91.40
9223;DHT22;7557;51.698;3.942;2022-09-03T09:58:21;24.20;91.40
9223;DHT22;7557;51.698;3.942;2022-09-03T10:00:57;24.30;91.30
9223;DHT22;7557;51.698;3.942;2022-09-03T10:03:25;24.30;91.20
9223;DHT22;7557;51.698;3.942;2022-09-03T10:06:02;24.30;91.30
9223;DHT22;7557;51.698;3.942;2022-09-03T10:08:51;24.40;91.20
9223;DHT22;7557;51.698;3.942;2022-09-03T10:11:21;24.40;91.10
9223;DHT22;7557;51.698;3.942;2022-09-03T10:13:53;24.40;90.90
9223;DHT22;7557;51.698;3.942;2022-09-03T10:16:27;24.40;90.90
9223;DHT22;7557;51.698;3.942;2022-09-03T10:19:04;24.60;90.80
9223;DHT22;7557;51.698;3.942;2022-09-03T10:21:40;24.60;90.80
9223;DHT22;7557;51.698;3.942;2022-09-03T10:24:29;24.60;90.80
9223;DHT22;7557;51.698;3.942;2022-09-03T10:27:02;24.80;90.70
9223;DHT22;7557;51.698;3.942;2022-09-03T10:29:30;24.80;90.70
9223;DHT22;7557;51.698;3.942;2022-09-03T10:32:06;24.90;90.60
9223;DHT22;7557;51.698;3.942;2022-09-03T10:34:43;25.00;90.70
9223;DHT22;7557;51.698;3.942;2022-09-03T10:37:20;25.00;90.60
9223;DHT22;7557;51.698;3.942;2022-09-03T10:39:58;25.20;90.60
9223;DHT22;7557;51.698;3.942;2022-09-03T10:42:36;25.40;90.80
9223;DHT22;7557;51.698;3.942;2022-09-03T10:45:17;25.70;90.80
9223;DHT22;7557;51.698;3.942;2022-09-03T10:51:00;26.40;89.70
9223;DHT22;7557;51.698;3.942;2022-09-03T10:53:43;26.50;90.00
9223;DHT22;7557;51.698;3.942;2022-09-03T10:56:18;26.70;89.10
9223;DHT22;7557;51.698;3.942;2022-09-03T10:58:59;26.90;88.70
9223;DHT22;7557;51.698;3.942;2022-09-03T11:01:36;27.10;88.60
9223;DHT22;7557;51.698;3.942;2022-09-03T11:04:23;27.20;88.00
9223;DHT22;7557;51.698;3.942;2022-09-03T11:06:55;27.30;87.50
9223;DHT22;7557;51.698;3.942;2022-09-03T11:09:28;27.30;87.50
9223;DHT22;7557;51.698;3.942;2022-09-03T11:11:59;27.50;87.30
9223;DHT22;7557;51.698;3.942;2022-09-03T11:14:33;27.50;86.90
9223;DHT22;7557;51.698;3.942;2022-09-03T11:17:06;27.50;87.00
9223;DHT22;7557;51.698;3.942;2022-09-03T11:19:41;27.50;86.50
9223;DHT22;7557;51.698;3.942;2022-09-03T11:22:13;27.40;86.60
9223;DHT22;7557;51.698;3.942;2022-09-03T11:24:44;27.40;86.60
9223;DHT22;7557;51.698;3.942;2022-09-03T11:27:23;27.40;86.20
9223;DHT22;7557;51.698;3.942;2022-09-03T11:29:59;27.30;86.60
9223;DHT22;7557;51.698;3.942;2022-09-03T11:32:33;27.30;86.50
9223;DHT22;7557;51.698;3.942;2022-09-03T11:35:13;27.40;87.00
9223;DHT22;7557;51.698;3.942;2022-09-03T11:37:49;27.60;86.50
9223;DHT22;7557;51.698;3.942;2022-09-03T11:40:28;27.80;86.20
9223;DHT22;7557;51.698;3.942;2022-09-03T11:43:06;28.00;86.10
9223;DHT22;7557;51.698;3.942;2022-09-03T11:45:37;28.20;85.50
9223;DHT22;7557;51.698;3.942;2022-09-03T11:48:27;28.30;85.70
9223;DHT22;7557;51.698;3.942;2022-09-03T11:50:58;28.40;84.80
9223;DHT22;7557;51.698;3.942;2022-09-03T11:53:31;28.40;85.40
9223;DHT22;7557;51.698;3.942;2022-09-03T11:56:00;28.50;85.40
9223;DHT22;7557;51.698;3.942;2022-09-03T11:58:30;28.60;85.00
9223;DHT22;7557;51.698;3.942;2022-09-03T12:01:03;28.60;84.70
9223;DHT22;7557;51.698;3.942;2022-09-03T12:03:41;28.70;84.20
9223;DHT22;7557;51.698;3.942;2022-09-03T12:06:36;28.60;84.50
9223;DHT22;7557;51.698;3.942;2022-09-03T12:09:26;28.60;84.00
9223;DHT22;7557;51.698;3.942;2022-09-03T12:12:08;28.80;83.20
9223;DHT22;7557;51.698;3.942;2022-09-03T12:14:46;28.90;83.00
9223;DHT22;7557;51.698;3.942;2022-09-03T12:17:24;29.00;83.50
9223;DHT22;7557;51.698;3.942;2022-09-03T12:19:55;29.10;83.10
9223;DHT22;7557;51.698;3.942;2022-09-03T12:22:25;29.20;82.60
9223;DHT22;7557;51.698;3.942;2022-09-03T12:24:53;29.20;82.60
9223;DHT22;7557;51.698;3.942;2022-09-03T12:27:23;29.10;82.90
9223;DHT22;7557;51.698;3.942;2022-09-03T12:29:55;29.10;82.40
9223;DHT22;7557;51.698;3.942;2022-09-03T12:32:27;29.20;82.60
9223;DHT22;7557;51.698;3.942;2022-09-03T12:34:57;29.20;82.70
9223;DHT22;7557;51.698;3.942;2022-09-03T12:37:26;29.20;82.70
9223;DHT22;7557;51.698;3.942;2022-09-03T12:40:01;29.30;82.70
9223;DHT22;7557;51.698;3.942;2022-09-03T12:42:30;29.20;82.10
9223;DHT22;7557;51.698;3.942;2022-09-03T12:45:04;29.10;82.30
9223;DHT22;7557;51.698;3.942;2022-09-03T12:47:38;29.10;81.90
9223;DHT22;7557;51.698;3.942;2022-09-03T12:50:07;29.20;81.20
9223;DHT22;7557;51.698;3.942;2022-09-03T12:52:37;29.10;82.20
9223;DHT22;7557;51.698;3.942;2022-09-03T12:55:09;29.10;82.30
9223;DHT22;7557;51.698;3.942;2022-09-03T12:57:44;29.10;82.10
9223;DHT22;7557;51.698;3.942;2022-09-03T13:00:15;29.30;82.00
9223;DHT22;7557;51.698;3.942;2022-09-03T13:02:49;29.30;82.00
9223;DHT22;7557;51.698;3.942;2022-09-03T13:05:20;29.40;82.10
9223;DHT22;7557;51.698;3.942;2022-09-03T13:07:51;29.50;81.70
9223;DHT22;7557;51.698;3.942;2022-09-03T13:10:25;29.50;81.30
9223;DHT22;7557;51.698;3.942;2022-09-03T13:12:58;29.50;81.50
9223;DHT22;7557;51.698;3.942;2022-09-03T13:15:27;29.40;81.30
9223;DHT22;7557;51.698;3.942;2022-09-03T13:18:07;29.30;81.50
9223;DHT22;7557;51.698;3.942;2022-09-03T13:20:44;29.30;81.60
9223;DHT22;7557;51.698;3.942;2022-09-03T13:23:39;29.20;81.50
9223;DHT22;7557;51.698;3.942;2022-09-03T13:26:20;29.20;81.30
9223;DHT22;7557;51.698;3.942;2022-09-03T13:31:48;29.20;81.40
9223;DHT22;7557;51.698;3.942;2022-09-03T13:34:24;29.10;81.40
9223;DHT22;7557;51.698;3.942;2022-09-03T13:36:57;29.10;81.70
9223;DHT22;7557;51.698;3.942;2022-09-03T13:39:29;29.10;81.70
9223;DHT22;7557;51.698;3.942;2022-09-03T13:42:04;29.00;81.70
9223;DHT22;7557;51.698;3.942;2022-09-03T13:44:39;28.90;82.20
9223;DHT22;7557;51.698;3.942;2022-09-03T13:47:11;28.90;82.20
9223;DHT22;7557;51.698;3.942;2022-09-03T13:49:49;28.90;82.10
9223;DHT22;7557;51.698;3.942;2022-09-03T13:52:38;29.00;82.30
9223;DHT22;7557;51.698;3.942;2022-09-03T13:55:11;29.00;82.20
9223;DHT22;7557;51.698;3.942;2022-09-03T13:57:46;29.00;82.00
9223;DHT22;7557;51.698;3.942;2022-09-03T14:00:23;29.00;81.50
9223;DHT22;7557;51.698;3.942;2022-09-03T14:02:54;29.00;81.60
9223;DHT22;7557;51.698;3.942;2022-09-03T14:08:29;28.90;82.00
9223;DHT22;7557;51.698;3.942;2022-09-03T14:11:08;28.70;82.30
9223;DHT22;7557;51.698;3.942;2022-09-03T14:13:53;28.60;82.60
9223;DHT22;7557;51.698;3.942;2022-09-03T14:16:30;28.70;82.50
9223;DHT22;7557;51.698;3.942;2022-09-03T14:19:04;28.70;82.70
9223;DHT22;7557;51.698;3.942;2022-09-03T14:21:39;28.80;82.50
9223;DHT22;7557;51.698;3.942;2022-09-03T14:24:13;28.90;82.20
9223;DHT22;7557;51.698;3.942;2022-09-03T14:26:50;28.80;82.20
9223;DHT22;7557;51.698;3.942;2022-09-03T14:29:22;28.80;81.80
9223;DHT22;7557;51.698;3.942;2022-09-03T14:32:04;28.90;82.10
9223;DHT22;7557;51.698;3.942;2022-09-03T14:34:44;28.90;82.20
9223;DHT22;7557;51.698;3.942;2022-09-03T14:37:32;28.90;82.30
9223;DHT22;7557;51.698;3.942;2022-09-03T14:40:08;28.90;82.60
9223;DHT22;7557;51.698;3.942;2022-09-03T14:42:59;28.70;82.80
9223;DHT22;7557;51.698;3.942;2022-09-03T14:46:04;28.50;83.30
9223;DHT22;7557;51.698;3.942;2022-09-03T14:48:52;28.40;83.80
9223;DHT22;7557;51.698;3.942;2022-09-03T14:51:33;28.30;84.00
9223;DHT22;7557;51.698;3.942;2022-09-03T14:54:29;28.10;84.50
9223;DHT22;7557;51.698;3.942;2022-09-03T14:57:18;28.00;84.80
9223;DHT22;7557;51.698;3.942;2022-09-03T15:00:06;27.90;85.10
9223;DHT22;7557;51.698;3.942;2022-09-03T15:06:13;27.90;85.80
9223;DHT22;7557;51.698;3.942;2022-09-03T15:08:56;27.90;86.30
9223;DHT22;7557;51.698;3.942;2022-09-03T15:11:32;27.90;86.30
9223;DHT22;7557;51.698;3.942;2022-09-03T15:14:05;27.90;86.60
9223;DHT22;7557;51.698;3.942;2022-09-03T15:16:42;27.90;86.50
9223;DHT22;7557;51.698;3.942;2022-09-03T15:19:18;27.90;86.60
9223;DHT22;7557;51.698;3.942;2022-09-03T15:22:00;27.90;87.20
9223;DHT22;7557;51.698;3.942;2022-09-03T15:24:42;27.90;87.20
9223;DHT22;7557;51.698;3.942;2022-09-03T15:30:13;27.90;87.10
9223;DHT22;7557;51.698;3.942;2022-09-03T15:32:49;27.90;87.20
9223;DHT22;7557;51.698;3.942;2022-09-03T15:35:42;27.90;87.50
9223;DHT22;7557;51.698;3.942;2022-09-03T15:38:19;27.90;87.70
9223;DHT22;7557;51.698;3.942;2022-09-03T15:40:51;27.90;88.20
9223;DHT22;7557;51.698;3.942;2022-09-03T15:43:25;27.90;88.00
9223;DHT22;7557;51.698;3.942;2022-09-03T15:45:56;28.00;88.00
9223;DHT22;7557;51.698;3.942;2022-09-03T15:48:36;28.00;88.00
9223;DHT22;7557;51.698;3.942;2022-09-03T15:51:16;28.10;88.00
9223;DHT22;7557;51.698;3.942;2022-09-03T15:53:50;28.10;88.10
9223;DHT22;7557;51.698;3.942;2022-09-03T15:56:23;28.10;88.00
9223;DHT22;7557;51.698;3.942;2022-09-03T15:59:07;28.20;88.10
9223;DHT22;7557;51.698;3.942;2022-09-03T16:01:44;28.30;88.10
9223;DHT22;7557;51.698;3.942;2022-09-03T16:04:28;28.20;87.90
9223;DHT22;7557;51.698;3.942;2022-09-03T16:07:06;28.30;87.30
9223;DHT22;7557;51.698;3.942;2022-09-03T16:09:47;28.30;87.50
9223;DHT22;7557;51.698;3.942;2022-09-03T16:12:24;28.30;87.40
9223;DHT22;7557;51.698;3.942;2022-09-03T16:14:59;28.20;87.30
9223;DHT22;7557;51.698;3.942;2022-09-03T16:17:32;28.20;87.60
9223;DHT22;7557;51.698;3.942;2022-09-03T16:20:03;28.10;87.30
9223;DHT22;7557;51.698;3.942;2022-09-03T16:22:39;28.10;87.40
9223;DHT22;7557;51.698;3.942;2022-09-03T16:25:12;28.10;87.40
9223;DHT22;7557;51.698;3.942;2022-09-03T16:27:49;28.10;87.70
9223;DHT22;7557;51.698;3.942;2022-09-03T16:30:33;28.10;87.70
9223;DHT22;7557;51.698;3.942;2022-09-03T16:33:09;28.00;87.90
9223;DHT22;7557;51.698;3.942;2022-09-03T16:35:42;28.00;87.80
9223;DHT22;7557;51.698;3.942;2022-09-03T16:38:28;28.00;88.10
9223;DHT22;7557;51.698;3.942;2022-09-03T16:41:07;28.00;88.00
9223;DHT22;7557;51.698;3.942;2022-09-03T16:43:42;28.00;88.10
9223;DHT22;7557;51.698;3.942;2022-09-03T16:46:23;28.10;88.10
9223;DHT22;7557;51.698;3.942;2022-09-03T16:49:10;28.10;88.00
9223;DHT22;7557;51.698;3.942;2022-09-03T16:51:42;28.10;88.20
9223;DHT22;7557;51.698;3.942;2022-09-03T16:54:29;28.10;88.10
9223;DHT22;7557;51.698;3.942;2022-09-03T16:57:10;28.10;87.70
9223;DHT22;7557;51.698;3.942;2022-09-03T17:00:06;28.00;88.10